createdAt,value
2019-03-27T00:00:42.919Z,101475.60
2019-03-27T00:02:18.783Z,101474.53
2019-03-27T00:03:54.584Z,101481.41
2019-03-27T00:05:30.213Z,101484.51
2019-03-27T00:07:05.834Z,101479.89
2019-03-27T00:08:41.787Z,101483.26
2019-03-27T00:10:17.431Z,101481.79
2019-03-27T00:11:53.296Z,101479.02
2019-03-27T00:13:28.549Z,101480.15
2019-03-27T00:15:12.904Z,101483.48
2019-03-27T00:16:40.553Z,101481.25
2019-03-27T00:18:15.441Z,101480.45
2019-03-27T00:19:50.607Z,101482.45
2019-03-27T00:21:25.508Z,101480.30
2019-03-27T00:23:00.429Z,101484.95
2019-03-27T00:24:35.606Z,101484.41
2019-03-27T00:26:10.498Z,101485.34
2019-03-27T00:27:45.955Z,101486.81
2019-03-27T00:29:21.293Z,101486.28
2019-03-27T00:30:56.174Z,101484.42
2019-03-27T00:32:31.341Z,101485.88
2019-03-27T00:34:06.225Z,101487.66
2019-03-27T00:35:41.128Z,101494.38
2019-03-27T00:37:16.017Z,101489.52
2019-03-27T00:38:50.927Z,101495.50
2019-03-27T00:40:26.380Z,101493.09
2019-03-27T00:42:01.260Z,101487.69
2019-03-27T00:43:36.442Z,101498.89
2019-03-27T00:45:25.517Z,101496.53
2019-03-27T00:46:48.542Z,101501.06
2019-03-27T00:48:23.425Z,101495.56
2019-03-27T00:49:58.310Z,101501.45
2019-03-27T00:51:33.192Z,101497.28
2019-03-27T00:53:08.118Z,101506.95
2019-03-27T00:54:43.576Z,101513.00
2019-03-27T00:56:18.461Z,101510.38
2019-03-27T00:57:53.347Z,101506.20
2019-03-27T00:59:28.257Z,101512.35
2019-03-27T01:01:15.863Z,101507.63
2019-03-27T01:02:51.113Z,101501.75
2019-03-27T01:04:26.368Z,101498.83
2019-03-27T01:06:01.614Z,101495.95
2019-03-27T01:07:36.500Z,101497.84
2019-03-27T01:09:11.403Z,101497.30
2019-03-27T01:10:46.301Z,101499.36
2019-03-27T01:12:21.300Z,101498.66
2019-03-27T01:13:56.191Z,101496.08
2019-03-27T01:15:39.731Z,101497.78
2019-03-27T01:17:07.693Z,101497.84
2019-03-27T01:18:42.777Z,101501.34
2019-03-27T01:20:17.669Z,101501.84
2019-03-27T01:21:52.575Z,101495.83
2019-03-27T01:23:27.796Z,101492.27
2019-03-27T01:25:02.712Z,101491.30
2019-03-27T01:26:37.636Z,101500.70
2019-03-27T01:28:12.894Z,101506.32
2019-03-27T01:29:47.797Z,101504.56
2019-03-27T01:31:22.713Z,101509.83
2019-03-27T01:32:57.605Z,101500.23
2019-03-27T01:34:32.509Z,101504.77
2019-03-27T01:36:07.415Z,101505.28
2019-03-27T01:37:42.673Z,101503.99
2019-03-27T01:39:17.560Z,101501.77
2019-03-27T01:40:52.455Z,101501.13
2019-03-27T01:42:27.412Z,101504.70
2019-03-27T01:44:02.967Z,101511.89
2019-03-27T01:45:38.199Z,101507.41
2019-03-27T01:47:13.361Z,101512.98
2019-03-27T01:48:48.242Z,101510.92
2019-03-27T01:50:23.588Z,101510.11
2019-03-27T01:51:58.821Z,101517.67
2019-03-27T01:53:33.722Z,101515.73
2019-03-27T01:55:09.077Z,101511.75
2019-03-27T01:56:43.998Z,101515.89
2019-03-27T01:58:19.445Z,101514.81
2019-03-27T01:59:54.673Z,101515.48
2019-03-27T02:01:29.562Z,101514.47
2019-03-27T02:03:04.627Z,101516.19
2019-03-27T02:04:39.863Z,101516.75
2019-03-27T02:06:15.092Z,101515.66
2019-03-27T02:07:49.990Z,101513.94
2019-03-27T02:09:24.883Z,101517.36
2019-03-27T02:10:59.776Z,101524.09
2019-03-27T02:12:34.698Z,101516.80
2019-03-27T02:14:09.769Z,101524.94
2019-03-27T02:15:44.669Z,101522.91
2019-03-27T02:17:20.287Z,101524.19
2019-03-27T02:18:55.197Z,101522.47
2019-03-27T02:20:30.085Z,101522.81
2019-03-27T02:22:04.981Z,101525.33
2019-03-27T02:23:40.295Z,101526.20
2019-03-27T02:25:15.196Z,101529.13
2019-03-27T02:26:50.157Z,101523.94
2019-03-27T02:28:25.053Z,101529.25
2019-03-27T02:29:59.961Z,101531.17
2019-03-27T02:31:34.843Z,101526.09
2019-03-27T02:33:09.759Z,101527.71
2019-03-27T02:34:45.030Z,101537.25
2019-03-27T02:36:19.938Z,101537.81
2019-03-27T02:37:54.822Z,101527.51
2019-03-27T02:39:29.723Z,101533.05
2019-03-27T02:41:04.721Z,101529.78
2019-03-27T02:42:39.610Z,101534.25
2019-03-27T02:44:14.605Z,101542.50
2019-03-27T02:45:49.769Z,101541.72
2019-03-27T02:47:24.657Z,101542.27
2019-03-27T02:48:59.855Z,101545.87
2019-03-27T02:50:34.848Z,101545.09
2019-03-27T02:52:10.096Z,101539.84
2019-03-27T02:53:45.058Z,101544.41
2019-03-27T02:55:20.238Z,101548.02
2019-03-27T02:56:55.498Z,101543.31
2019-03-27T02:58:30.437Z,101547.70
2019-03-27T03:00:06.761Z,101548.73
2019-03-27T03:01:41.651Z,101555.25
2019-03-27T03:03:16.545Z,101559.73
2019-03-27T03:04:52.052Z,101550.89
2019-03-27T03:06:26.958Z,101557.16
2019-03-27T03:08:01.858Z,101558.87
2019-03-27T03:09:36.750Z,101548.98
2019-03-27T03:11:11.656Z,101560.19
2019-03-27T03:12:46.702Z,101561.92
2019-03-27T03:14:21.612Z,101557.72
2019-03-27T03:15:56.508Z,101559.52
2019-03-27T03:17:31.654Z,101559.44
2019-03-27T03:19:06.559Z,101564.95
2019-03-27T03:20:41.757Z,101568.96
2019-03-27T03:22:17.149Z,101569.30
2019-03-27T03:23:52.044Z,101565.56
2019-03-27T03:25:26.965Z,101563.73
2019-03-27T03:27:02.229Z,101563.36
2019-03-27T03:28:37.118Z,101560.79
2019-03-27T03:30:12.709Z,101558.83
2019-03-27T03:31:48.241Z,101558.73
2019-03-27T03:33:23.578Z,101556.84
2019-03-27T03:34:58.807Z,101561.03
2019-03-27T03:36:33.699Z,101555.70
2019-03-27T03:38:08.688Z,101558.23
2019-03-27T03:39:43.595Z,101563.41
2019-03-27T03:41:18.480Z,101559.56
2019-03-27T03:42:53.383Z,101556.59
2019-03-27T03:44:28.492Z,101557.54
2019-03-27T03:46:03.608Z,101558.43
2019-03-27T03:47:38.870Z,101553.45
2019-03-27T03:49:13.766Z,101552.59
2019-03-27T03:50:48.778Z,101553.36
2019-03-27T03:52:24.890Z,101560.47
2019-03-27T03:53:59.948Z,101558.64
2019-03-27T03:55:36.805Z,101563.67
2019-03-27T03:57:12.375Z,101571.00
2019-03-27T03:58:48.237Z,101569.81
2019-03-27T04:00:23.410Z,101571.69
2019-03-27T04:02:01.507Z,101578.86
2019-03-27T04:03:36.797Z,101571.32
2019-03-27T04:05:14.950Z,101577.94
2019-03-27T04:06:52.851Z,101572.91
2019-03-27T04:08:27.817Z,101580.34
2019-03-27T04:10:02.822Z,101572.95
2019-03-27T04:11:38.111Z,101574.55
2019-03-27T04:13:13.313Z,101569.91
2019-03-27T04:14:48.285Z,101568.19
2019-03-27T04:16:23.189Z,101568.02
2019-03-27T04:17:58.555Z,101570.26
2019-03-27T04:19:33.535Z,101564.52
2019-03-27T04:21:08.548Z,101564.38
2019-03-27T04:22:43.509Z,101564.26
2019-03-27T04:24:18.553Z,101565.59
2019-03-27T04:26:08.796Z,101562.52
2019-03-27T04:27:30.463Z,101562.97
2019-03-27T04:29:05.631Z,101562.70
2019-03-27T04:30:40.548Z,101561.77
2019-03-27T04:32:15.515Z,101563.25
2019-03-27T04:33:50.783Z,101566.84
2019-03-27T04:35:25.955Z,101574.38
2019-03-27T04:37:01.070Z,101575.03
2019-03-27T04:38:35.960Z,101574.70
2019-03-27T04:40:11.025Z,101585.64
2019-03-27T04:41:46.215Z,101582.52
2019-03-27T04:43:21.159Z,101577.34
2019-03-27T04:44:56.138Z,101587.56
2019-03-27T04:46:31.031Z,101593.02
2019-03-27T04:48:06.006Z,101590.72
2019-03-27T04:49:41.326Z,101595.42
2019-03-27T04:51:16.308Z,101594.75
2019-03-27T04:52:51.365Z,101597.05
2019-03-27T04:54:27.111Z,101599.07
2019-03-27T04:56:02.268Z,101598.14
2019-03-27T04:57:37.469Z,101600.44
2019-03-27T04:59:12.449Z,101601.56
2019-03-27T05:00:47.457Z,101606.23
2019-03-27T05:02:22.815Z,101604.77
2019-03-27T05:03:57.898Z,101614.60
2019-03-27T05:05:32.785Z,101614.61
2019-03-27T05:07:07.685Z,101612.37
2019-03-27T05:08:42.974Z,101613.30
2019-03-27T05:10:17.927Z,101618.73
2019-03-27T05:11:52.846Z,101621.89
2019-03-27T05:13:27.773Z,101624.38
2019-03-27T05:15:02.698Z,101620.42
2019-03-27T05:16:37.610Z,101623.02
2019-03-27T05:18:12.519Z,101620.77
2019-03-27T05:19:47.754Z,101616.05
2019-03-27T05:21:22.909Z,101612.27
2019-03-27T05:22:57.846Z,101618.38
2019-03-27T05:24:32.767Z,101618.64
2019-03-27T05:26:07.814Z,101621.84
2019-03-27T05:27:42.715Z,101624.79
2019-03-27T05:29:17.640Z,101621.99
2019-03-27T05:30:52.955Z,101631.00
2019-03-27T05:32:28.274Z,101635.77
2019-03-27T05:34:03.178Z,101635.86
2019-03-27T05:35:38.156Z,101638.23
2019-03-27T05:37:13.046Z,101642.30
2019-03-27T05:38:48.219Z,101641.91
2019-03-27T05:40:23.526Z,101645.14
2019-03-27T05:41:58.871Z,101639.54
2019-03-27T05:43:33.830Z,101653.80
2019-03-27T05:45:09.246Z,101648.06
2019-03-27T05:46:44.153Z,101650.56
2019-03-27T05:48:19.037Z,101654.80
2019-03-27T05:49:54.194Z,101665.20
2019-03-27T05:51:29.121Z,101655.77
2019-03-27T05:53:04.097Z,101656.78
2019-03-27T05:54:39.022Z,101645.28
2019-03-27T05:56:14.195Z,101649.94
2019-03-27T05:57:49.196Z,101649.92
2019-03-27T05:59:24.109Z,101656.83
2019-03-27T06:00:59.521Z,101647.91
2019-03-27T06:02:34.466Z,101655.22
2019-03-27T06:04:09.407Z,101657.77
2019-03-27T06:05:44.307Z,101655.22
2019-03-27T06:07:19.495Z,101659.27
2019-03-27T06:08:54.470Z,101659.04
2019-03-27T06:10:29.368Z,101660.87
2019-03-27T06:12:04.353Z,101658.20
2019-03-27T06:13:39.303Z,101655.91
2019-03-27T06:15:14.383Z,101656.22
2019-03-27T06:16:49.299Z,101660.47
2019-03-27T06:18:24.303Z,101660.20
2019-03-27T06:19:59.278Z,101667.39
2019-03-27T06:21:34.939Z,101662.64
2019-03-27T06:23:10.138Z,101661.72
2019-03-27T06:24:45.789Z,101664.86
2019-03-27T06:26:20.767Z,101670.10
2019-03-27T06:27:56.411Z,101667.59
2019-03-27T06:29:32.356Z,101673.36
2019-03-27T06:31:07.446Z,101674.45
2019-03-27T06:32:42.557Z,101672.11
2019-03-27T06:34:17.581Z,101667.60
2019-03-27T06:35:52.807Z,101664.63
2019-03-27T06:37:27.734Z,101673.55
2019-03-27T06:39:02.705Z,101671.61
2019-03-27T06:40:39.748Z,101674.33
2019-03-27T06:42:14.258Z,101679.12
2019-03-27T06:43:49.819Z,101675.86
2019-03-27T06:45:25.112Z,101688.98
2019-03-27T06:47:00.343Z,101686.19
2019-03-27T06:48:35.257Z,101687.42
2019-03-27T06:50:10.450Z,101684.10
2019-03-27T06:51:45.414Z,101694.73
2019-03-27T06:53:20.686Z,101695.82
2019-03-27T06:54:55.750Z,101700.48
2019-03-27T06:56:30.695Z,101703.56
2019-03-27T06:58:05.785Z,101698.36
2019-03-27T06:59:40.704Z,101698.97
2019-03-27T07:01:15.630Z,101696.47
2019-03-27T07:02:50.637Z,101703.73
2019-03-27T07:04:25.964Z,101701.63
2019-03-27T07:06:01.161Z,101699.15
2019-03-27T07:07:36.097Z,101696.91
2019-03-27T07:09:11.278Z,101690.70
2019-03-27T07:10:46.490Z,101687.96
2019-03-27T07:12:21.727Z,101694.48
2019-03-27T07:13:56.873Z,101696.89
2019-03-27T07:15:35.455Z,101698.02
2019-03-27T07:17:10.699Z,101698.87
2019-03-27T07:18:45.598Z,101697.30
2019-03-27T07:20:20.523Z,101697.91
2019-03-27T07:21:55.519Z,101703.04
2019-03-27T07:23:30.498Z,101709.52
2019-03-27T07:25:07.024Z,101712.86
2019-03-27T07:26:42.107Z,101714.47
2019-03-27T07:28:17.030Z,101720.83
2019-03-27T07:29:52.078Z,101717.27
2019-03-27T07:31:27.005Z,101716.63
2019-03-27T07:33:01.938Z,101724.04
2019-03-27T07:34:36.859Z,101731.28
2019-03-27T07:36:12.610Z,101730.92
2019-03-27T07:37:47.719Z,101731.61
2019-03-27T07:39:22.746Z,101735.02
2019-03-27T07:40:57.771Z,101731.41
2019-03-27T07:42:34.051Z,101727.59
2019-03-27T07:44:09.982Z,101734.36
2019-03-27T07:45:45.666Z,101732.61
2019-03-27T07:47:20.716Z,101729.00
2019-03-27T07:48:55.936Z,101728.70
2019-03-27T07:50:30.913Z,101738.28
2019-03-27T07:52:06.142Z,101732.95
2019-03-27T07:53:41.165Z,101738.18
2019-03-27T07:55:19.690Z,101737.63
2019-03-27T07:56:53.379Z,101730.98
2019-03-27T07:58:28.657Z,101740.14
2019-03-27T08:00:04.526Z,101740.05
2019-03-27T08:01:39.481Z,101734.81
2019-03-27T08:03:14.389Z,101743.41
2019-03-27T08:04:49.306Z,101736.88
2019-03-27T08:06:24.258Z,101740.89
2019-03-27T08:07:59.309Z,101739.94
2019-03-27T08:09:34.312Z,101739.55
2019-03-27T08:11:09.337Z,101737.91
2019-03-27T08:12:44.269Z,101737.02
2019-03-27T08:14:19.453Z,101741.55
2019-03-27T08:15:54.386Z,101738.69
2019-03-27T08:17:29.353Z,101740.36
2019-03-27T08:19:07.675Z,101736.48
2019-03-27T08:20:41.138Z,101739.75
2019-03-27T08:22:16.049Z,101736.03
2019-03-27T08:23:51.002Z,101735.17
2019-03-27T08:25:26.166Z,101733.77
2019-03-27T08:27:01.156Z,101745.20
2019-03-27T08:28:36.191Z,101745.34
2019-03-27T08:30:12.433Z,101744.34
2019-03-27T08:31:47.383Z,101750.62
2019-03-27T08:33:22.962Z,101750.03
2019-03-27T08:34:58.561Z,101748.19
2019-03-27T08:36:34.446Z,101744.36
2019-03-27T08:38:10.313Z,101753.86
2019-03-27T08:39:45.950Z,101743.90
2019-03-27T08:41:21.645Z,101746.48
2019-03-27T08:42:57.767Z,101740.90
2019-03-27T08:44:32.775Z,101741.87
2019-03-27T08:46:07.864Z,101741.02
2019-03-27T08:47:42.867Z,101749.19
2019-03-27T08:49:22.308Z,101743.02
2019-03-27T08:50:54.803Z,101738.00
2019-03-27T08:52:29.978Z,101742.20
2019-03-27T08:54:04.984Z,101748.58
2019-03-27T08:55:39.989Z,101755.39
2019-03-27T08:57:15.373Z,101760.64
2019-03-27T08:58:50.290Z,101756.11
2019-03-27T09:00:46.010Z,101751.93
2019-03-27T09:02:20.978Z,101749.67
2019-03-27T09:03:55.913Z,101752.30
2019-03-27T09:05:31.187Z,101746.98
2019-03-27T09:07:06.722Z,101748.01
2019-03-27T09:08:41.682Z,101750.09
2019-03-27T09:10:17.093Z,101750.02
2019-03-27T09:11:52.078Z,101751.59
2019-03-27T09:13:27.306Z,101749.04
2019-03-27T09:15:02.390Z,101749.42
2019-03-27T09:16:37.719Z,101752.13
2019-03-27T09:18:12.716Z,101747.12
2019-03-27T09:19:47.975Z,101746.38
2019-03-27T09:21:23.294Z,101750.31
2019-03-27T09:22:58.209Z,101750.66
2019-03-27T09:24:33.112Z,101754.38
2019-03-27T09:26:08.020Z,101757.52
2019-03-27T09:27:42.963Z,101756.89
2019-03-27T09:29:18.801Z,101756.77
2019-03-27T09:30:54.784Z,101753.98
2019-03-27T09:32:30.806Z,101754.48
2019-03-27T09:34:06.512Z,101752.89
2019-03-27T09:35:42.143Z,101755.30
2019-03-27T09:37:17.784Z,101757.34
2019-03-27T09:38:53.972Z,101762.20
2019-03-27T09:40:29.967Z,101761.67
2019-03-27T09:42:05.734Z,101756.41
2019-03-27T09:43:41.596Z,101767.08
2019-03-27T09:45:18.121Z,101764.36
2019-03-27T09:46:54.187Z,101773.06
2019-03-27T09:48:29.803Z,101773.77
2019-03-27T09:50:06.948Z,101767.03
2019-03-27T09:51:43.085Z,101765.20
2019-03-27T09:53:19.195Z,101765.43
2019-03-27T09:54:54.879Z,101766.92
2019-03-27T09:56:30.500Z,101771.38
2019-03-27T09:58:06.211Z,101773.45
2019-03-27T09:59:42.166Z,101773.13
2019-03-27T10:01:18.027Z,101772.85
2019-03-27T10:02:57.173Z,101771.66
2019-03-27T10:04:31.661Z,101773.47
2019-03-27T10:06:07.793Z,101770.23
2019-03-27T10:07:43.789Z,101775.89
2019-03-27T10:09:19.392Z,101772.41
2019-03-27T10:10:55.111Z,101773.73
2019-03-27T10:12:30.724Z,101773.84
2019-03-27T10:14:06.498Z,101779.13
2019-03-27T10:15:42.265Z,101775.95
2019-03-27T10:17:17.889Z,101774.06
2019-03-27T10:18:53.522Z,101774.33
2019-03-27T10:20:29.596Z,101772.21
2019-03-27T10:22:05.379Z,101772.47
2019-03-27T10:23:41.097Z,101768.98
2019-03-27T10:25:16.888Z,101775.02
2019-03-27T10:26:52.630Z,101762.48
2019-03-27T10:28:28.510Z,101762.39
2019-03-27T10:30:04.596Z,101766.58
2019-03-27T10:31:40.585Z,101771.34
2019-03-27T10:33:16.232Z,101767.18
2019-03-27T10:34:51.923Z,101763.16
2019-03-27T10:36:27.580Z,101768.53
2019-03-27T10:38:03.515Z,101767.45
2019-03-27T10:39:39.225Z,101768.03
2019-03-27T10:41:15.115Z,101764.92
2019-03-27T10:42:51.006Z,101766.03
2019-03-27T10:44:26.615Z,101762.65
2019-03-27T10:46:02.536Z,101771.80
2019-03-27T10:47:38.184Z,101773.09
2019-03-27T10:49:14.147Z,101774.61
2019-03-27T10:50:50.282Z,101768.45
2019-03-27T10:52:26.540Z,101772.37
2019-03-27T10:54:02.222Z,101770.92
2019-03-27T10:55:38.262Z,101772.95
2019-03-27T10:57:13.293Z,101777.92
2019-03-27T10:58:48.512Z,101766.80
2019-03-27T11:00:23.430Z,101768.67
2019-03-27T11:01:58.349Z,101771.69
2019-03-27T11:03:33.366Z,101766.63
2019-03-27T11:05:08.958Z,101771.85
2019-03-27T11:06:44.916Z,101774.09
2019-03-27T11:08:20.394Z,101767.59
2019-03-27T11:09:55.533Z,101779.34
2019-03-27T11:11:30.690Z,101785.91
2019-03-27T11:13:05.630Z,101783.43
2019-03-27T11:14:40.926Z,101781.35
2019-03-27T11:16:15.937Z,101768.05
2019-03-27T11:17:50.862Z,101771.16
2019-03-27T11:19:26.088Z,101763.16
2019-03-27T11:21:01.264Z,101762.69
2019-03-27T11:22:36.233Z,101767.44
2019-03-27T11:24:11.178Z,101768.14
2019-03-27T11:25:46.074Z,101774.22
2019-03-27T11:27:21.244Z,101769.16
2019-03-27T11:28:56.219Z,101779.78
2019-03-27T11:30:39.536Z,101774.62
2019-03-27T11:32:14.510Z,101783.75
2019-03-27T11:33:49.418Z,101779.53
2019-03-27T11:35:24.599Z,101779.63
2019-03-27T11:36:59.542Z,101773.11
2019-03-27T11:38:37.397Z,101778.06
2019-03-27T11:40:11.390Z,101777.55
2019-03-27T11:41:46.301Z,101780.08
2019-03-27T11:43:21.649Z,101782.64
2019-03-27T11:44:57.059Z,101784.77
2019-03-27T11:46:32.342Z,101781.33
2019-03-27T11:48:08.273Z,101785.66
2019-03-27T11:49:43.875Z,101785.94
2019-03-27T11:51:18.833Z,101786.90
2019-03-27T11:52:54.144Z,101783.48
2019-03-27T11:54:29.326Z,101774.47
2019-03-27T11:56:04.738Z,101776.66
2019-03-27T11:57:39.907Z,101779.23
2019-03-27T11:59:15.053Z,101782.63
2019-03-27T12:00:54.949Z,101776.97
2019-03-27T12:02:27.129Z,101771.00
2019-03-27T12:04:02.129Z,101775.47
2019-03-27T12:05:37.366Z,101782.44
2019-03-27T12:07:15.357Z,101779.73
2019-03-27T12:08:50.928Z,101771.80
2019-03-27T12:10:26.424Z,101766.53
2019-03-27T12:12:01.365Z,101771.17
2019-03-27T12:13:36.374Z,101768.81
2019-03-27T12:15:11.762Z,101770.50
2019-03-27T12:16:49.832Z,101771.11
2019-03-27T12:18:23.613Z,101766.56
2019-03-27T12:19:59.018Z,101766.98
2019-03-27T12:21:34.198Z,101774.20
2019-03-27T12:23:09.354Z,101773.18
2019-03-27T12:24:44.354Z,101768.62
2019-03-27T12:26:19.263Z,101766.55
2019-03-27T12:27:54.226Z,101772.93
2019-03-27T12:29:29.442Z,101772.70
2019-03-27T12:31:04.874Z,101778.27
2019-03-27T12:32:40.041Z,101775.11
2019-03-27T12:34:15.213Z,101777.65
2019-03-27T12:35:50.426Z,101777.75
2019-03-27T12:37:25.381Z,101769.08
2019-03-27T12:39:00.529Z,101773.75
2019-03-27T12:40:35.950Z,101775.38
2019-03-27T12:42:10.894Z,101769.07
2019-03-27T12:43:46.055Z,101772.80
2019-03-27T12:45:22.371Z,101770.04
2019-03-27T12:46:57.426Z,101772.27
2019-03-27T12:48:32.920Z,101766.89
2019-03-27T12:50:08.360Z,101769.48
2019-03-27T12:51:43.313Z,101771.95
2019-03-27T12:53:18.345Z,101773.84
2019-03-27T12:54:53.241Z,101769.75
2019-03-27T12:56:28.156Z,101772.02
2019-03-27T12:58:03.133Z,101773.15
2019-03-27T12:59:38.326Z,101770.97
2019-03-27T13:01:13.479Z,101773.96
2019-03-27T13:02:48.391Z,101773.33
2019-03-27T13:04:23.378Z,101773.09
2019-03-27T13:06:00.048Z,101772.20
2019-03-27T13:07:49.096Z,101772.12
2019-03-27T13:09:14.044Z,101770.39
2019-03-27T13:10:49.276Z,101765.98
2019-03-27T13:12:24.197Z,101772.26
2019-03-27T13:13:59.107Z,101771.12
2019-03-27T13:15:34.316Z,101771.91
2019-03-27T13:17:09.312Z,101767.05
2019-03-27T13:18:44.229Z,101768.17
2019-03-27T13:20:20.270Z,101773.36
2019-03-27T13:21:55.446Z,101769.41
2019-03-27T13:23:30.411Z,101769.58
2019-03-27T13:25:05.933Z,101768.56
2019-03-27T13:26:40.858Z,101768.89
2019-03-27T13:28:15.811Z,101767.95
2019-03-27T13:29:50.960Z,101771.67
2019-03-27T13:31:26.101Z,101766.44
2019-03-27T13:33:01.025Z,101769.42
2019-03-27T13:34:36.619Z,101769.48
2019-03-27T13:36:11.527Z,101765.25
2019-03-27T13:37:46.622Z,101764.36
2019-03-27T13:39:21.529Z,101768.04
2019-03-27T13:40:56.930Z,101766.00
2019-03-27T13:42:31.841Z,101769.27
2019-03-27T13:44:06.837Z,101763.44
2019-03-27T13:45:41.745Z,101762.02
2019-03-27T13:47:16.925Z,101764.91
2019-03-27T13:48:52.002Z,101761.64
2019-03-27T13:50:27.011Z,101755.25
2019-03-27T13:52:02.054Z,101757.59
2019-03-27T13:53:36.978Z,101754.86
2019-03-27T13:55:12.847Z,101757.06
2019-03-27T13:56:48.093Z,101766.33
2019-03-27T13:58:23.099Z,101756.89
2019-03-27T13:59:58.109Z,101763.13
2019-03-27T14:01:33.202Z,101764.04
2019-03-27T14:05:25.802Z,101756.98
2019-03-27T14:07:00.727Z,101766.88
2019-03-27T14:08:35.921Z,101764.12
2019-03-27T14:10:11.319Z,101767.09
2019-03-27T14:11:46.318Z,101766.41
2019-03-27T14:13:22.562Z,101767.38
2019-03-27T14:14:57.527Z,101766.92
2019-03-27T14:16:32.899Z,101761.03
2019-03-27T14:18:08.163Z,101758.79
2019-03-27T14:19:43.517Z,101755.16
2019-03-27T14:21:18.703Z,101751.48
2019-03-27T14:22:54.218Z,101750.73
2019-03-27T14:24:29.117Z,101752.39
2019-03-27T14:26:04.377Z,101745.89
2019-03-27T14:27:39.475Z,101751.88
2019-03-27T14:29:14.373Z,101747.72
2019-03-27T14:30:58.918Z,101746.34
2019-03-27T14:32:33.894Z,101749.59
2019-03-27T14:34:08.795Z,101749.75
2019-03-27T14:35:43.706Z,101746.91
2019-03-27T14:37:18.643Z,101748.45
2019-03-27T14:38:53.577Z,101744.18
2019-03-27T14:40:28.493Z,101745.67
2019-03-27T14:42:03.413Z,101737.94
2019-03-27T14:43:38.561Z,101736.22
2019-03-27T14:45:13.758Z,101733.66
2019-03-27T14:46:48.687Z,101735.61
2019-03-27T14:48:23.637Z,101733.20
2019-03-27T14:49:59.082Z,101733.67
2019-03-27T14:51:34.470Z,101737.73
2019-03-27T14:53:09.765Z,101728.95
2019-03-27T14:54:44.975Z,101731.45
2019-03-27T14:56:19.893Z,101731.98
2019-03-27T14:57:58.382Z,101727.66
2019-03-27T14:59:34.653Z,101731.80
2019-03-27T15:01:09.724Z,101732.37
2019-03-27T15:02:44.624Z,101736.23
2019-03-27T15:04:19.801Z,101733.92
2019-03-27T15:05:54.729Z,101738.49
2019-03-27T15:07:30.006Z,101744.09
2019-03-27T15:09:06.528Z,101742.69
2019-03-27T15:10:42.095Z,101748.13
2019-03-27T15:12:17.177Z,101745.22
2019-03-27T15:13:52.176Z,101744.98
2019-03-27T15:15:27.444Z,101746.64
2019-03-27T15:17:02.336Z,101747.29
2019-03-27T15:18:37.499Z,101743.58
2019-03-27T15:20:13.176Z,101744.14
2019-03-27T15:21:48.134Z,101747.12
2019-03-27T15:23:23.038Z,101751.75
2019-03-27T15:24:58.196Z,101743.47
2019-03-27T15:26:33.909Z,101750.20
2019-03-27T15:28:08.952Z,101751.48
2019-03-27T15:29:44.113Z,101745.94
2019-03-27T15:31:20.760Z,101749.27
2019-03-27T15:32:56.479Z,101743.09
2019-03-27T15:34:31.667Z,101740.13
2019-03-27T15:36:06.854Z,101742.13
2019-03-27T15:37:41.860Z,101748.08
2019-03-27T15:39:19.649Z,101748.20
2019-03-27T15:40:54.576Z,101739.34
2019-03-27T15:42:29.747Z,101739.96
2019-03-27T15:44:04.767Z,101747.31
2019-03-27T15:45:40.079Z,101738.30
2019-03-27T15:47:17.785Z,101746.69
2019-03-27T15:48:51.858Z,101739.23
2019-03-27T15:50:27.110Z,101740.48
2019-03-27T15:52:02.059Z,101745.63
2019-03-27T15:53:37.089Z,101740.47
2019-03-27T15:55:12.224Z,101743.47
2019-03-27T15:56:47.150Z,101744.80
2019-03-27T15:58:22.102Z,101746.22
2019-03-27T15:59:57.101Z,101740.84
2019-03-27T16:01:32.205Z,101743.23
2019-03-27T16:03:07.565Z,101743.88
2019-03-27T16:04:42.499Z,101739.54
2019-03-27T16:06:17.494Z,101745.59
2019-03-27T16:07:52.662Z,101743.98
2019-03-27T16:09:28.473Z,101750.12
2019-03-27T16:11:03.626Z,101746.97
2019-03-27T16:12:38.682Z,101740.50
2019-03-27T16:14:13.677Z,101743.56
2019-03-27T16:15:48.621Z,101739.63
2019-03-27T16:17:23.536Z,101743.84
2019-03-27T16:18:58.938Z,101740.83
2019-03-27T16:20:33.997Z,101742.59
2019-03-27T16:22:09.330Z,101742.20
2019-03-27T16:23:44.477Z,101737.20
2019-03-27T16:25:19.490Z,101738.72
2019-03-27T16:27:04.426Z,101747.77
2019-03-27T16:28:31.605Z,101747.50
2019-03-27T16:30:06.880Z,101748.22
2019-03-27T16:31:41.778Z,101746.20
2019-03-27T16:33:17.163Z,101747.75
2019-03-27T16:34:52.550Z,101746.58
2019-03-27T16:36:27.719Z,101748.47
2019-03-27T16:38:02.790Z,101748.03
2019-03-27T16:39:37.716Z,101747.47
2019-03-27T16:41:12.735Z,101745.91
2019-03-27T16:42:47.669Z,101745.42
2019-03-27T16:44:22.586Z,101744.34
2019-03-27T16:45:57.527Z,101742.01
2019-03-27T16:47:32.566Z,101750.02
2019-03-27T16:49:07.598Z,101742.33
2019-03-27T16:50:42.610Z,101738.66
2019-03-27T16:52:17.556Z,101744.72
2019-03-27T16:53:52.954Z,101746.20
2019-03-27T16:55:28.184Z,101744.53
2019-03-27T16:57:03.105Z,101750.18
2019-03-27T16:58:38.509Z,101746.41
2019-03-27T17:00:13.510Z,101750.52
2019-03-27T17:01:48.412Z,101755.89
2019-03-27T17:03:23.459Z,101759.34
2019-03-27T17:04:59.049Z,101761.55
2019-03-27T17:06:33.967Z,101758.39
2019-03-27T17:08:08.912Z,101753.81
2019-03-27T17:09:44.110Z,101756.39
2019-03-27T17:11:19.114Z,101756.09
2019-03-27T17:12:54.116Z,101763.17
2019-03-27T17:14:29.065Z,101761.58
2019-03-27T17:16:04.077Z,101768.44
2019-03-27T17:17:39.478Z,101772.00
2019-03-27T17:19:14.414Z,101771.23
2019-03-27T17:20:49.383Z,101773.11
2019-03-27T17:22:24.303Z,101781.09
2019-03-27T17:23:59.449Z,101781.00
2019-03-27T17:25:34.509Z,101779.91
2019-03-27T17:27:09.417Z,101774.72
2019-03-27T17:28:44.355Z,101778.94
2019-03-27T17:30:19.902Z,101783.26
2019-03-27T17:31:54.967Z,101782.83
2019-03-27T17:33:29.918Z,101780.94
2019-03-27T17:35:05.134Z,101786.30
2019-03-27T17:36:40.305Z,101786.72
2019-03-27T17:38:15.205Z,101791.11
2019-03-27T17:39:50.365Z,101790.27
2019-03-27T17:41:28.183Z,101791.85
2019-03-27T17:43:01.933Z,101793.08
2019-03-27T17:44:37.313Z,101792.92
2019-03-27T17:46:12.643Z,101797.66
2019-03-27T17:47:47.878Z,101797.66
2019-03-27T17:49:22.808Z,101792.95
2019-03-27T17:50:57.866Z,101791.22
2019-03-27T17:52:33.114Z,101797.84
2019-03-27T17:54:19.905Z,101799.08
2019-03-27T17:55:45.019Z,101801.94
2019-03-27T17:57:20.046Z,101800.56
2019-03-27T17:58:55.287Z,101799.72
2019-03-27T18:00:42.593Z,101804.50
2019-03-27T18:02:17.517Z,101805.58
2019-03-27T18:03:52.675Z,101803.79
2019-03-27T18:05:27.846Z,101809.49
2019-03-27T18:07:03.274Z,101806.55
2019-03-27T18:08:38.198Z,101805.12
2019-03-27T18:10:13.285Z,101802.70